createdAt,value
2023-03-01T00:00:30.698Z,1026.51
2023-03-01T00:01:30.664Z,1026.52
2023-03-01T00:02:31.685Z,1026.48
2023-03-01T00:03:30.697Z,1026.46
2023-03-01T00:04:30.634Z,1026.45
2023-03-01T00:05:30.631Z,1026.46
2023-03-01T00:06:30.949Z,1026.47
2023-03-01T00:07:30.654Z,1026.42
2023-03-01T00:08:30.636Z,1026.38
2023-03-01T00:09:30.632Z,1026.36
2023-03-01T00:10:30.575Z,1026.34
2023-03-01T00:11:30.613Z,1026.31
2023-03-01T00:12:30.537Z,1026.31
2023-03-01T00:13:30.549Z,1026.29
2023-03-01T00:14:30.543Z,1026.28
2023-03-01T00:15:30.597Z,1026.32
2023-03-01T00:16:30.827Z,1026.34
2023-03-01T00:17:30.708Z,1026.31
2023-03-01T00:18:30.530Z,1026.33
2023-03-01T00:19:30.469Z,1026.31
2023-03-01T00:20:30.469Z,1026.30
2023-03-01T00:21:30.476Z,1026.29
2023-03-01T00:22:30.453Z,1026.23
2023-03-01T00:23:30.438Z,1026.25
2023-03-01T00:24:30.556Z,1026.25
2023-03-01T00:25:30.429Z,1026.28
2023-03-01T00:26:30.733Z,1026.26
2023-03-01T00:27:30.415Z,1026.27
2023-03-01T00:28:30.394Z,1026.23
2023-03-01T00:29:30.387Z,1026.26
2023-03-01T00:30:30.395Z,1026.25
2023-03-01T00:31:30.384Z,1026.22
2023-03-01T00:32:30.319Z,1026.18
2023-03-01T00:33:30.314Z,1026.17
2023-03-01T00:34:30.341Z,1026.15
2023-03-01T00:35:30.373Z,1026.17
2023-03-01T00:36:30.684Z,1026.19
2023-03-01T00:37:30.296Z,1026.24
2023-03-01T00:38:30.318Z,1026.22
2023-03-01T00:39:30.261Z,1026.20
2023-03-01T00:40:30.236Z,1026.21
2023-03-01T00:41:30.249Z,1026.19
2023-03-01T00:42:30.231Z,1026.19
2023-03-01T00:43:30.236Z,1026.19
2023-03-01T00:44:30.228Z,1026.18
2023-03-01T00:45:30.234Z,1026.18
2023-03-01T00:46:30.617Z,1026.18
2023-03-01T00:47:30.177Z,1026.16
2023-03-01T00:48:30.195Z,1026.17
2023-03-01T00:49:30.237Z,1026.16
2023-03-01T00:50:30.169Z,1026.13
2023-03-01T00:51:30.141Z,1026.13
2023-03-01T00:52:30.092Z,1026.13
2023-03-01T00:53:30.117Z,1026.15
2023-03-01T00:54:30.094Z,1026.12
2023-03-01T00:55:30.088Z,1026.16
2023-03-01T00:56:30.299Z,1026.13
2023-03-01T00:57:30.085Z,1026.14
2023-03-01T00:58:30.044Z,1026.14
2023-03-01T00:59:30.023Z,1026.17
2023-03-01T01:00:30.016Z,1026.11
2023-03-01T01:01:30.135Z,1026.09
2023-03-01T01:02:30.033Z,1026.06
2023-03-01T01:03:29.997Z,1026.04
2023-03-01T01:04:29.981Z,1026.00
2023-03-01T01:05:29.979Z,1026.00
2023-03-01T01:06:30.292Z,1026.00
2023-03-01T01:07:29.946Z,1026.03
2023-03-01T01:08:29.919Z,1026.06
2023-03-01T01:09:29.924Z,1026.05
2023-03-01T01:10:29.911Z,1026.03
2023-03-01T01:11:29.967Z,1026.02
2023-03-01T01:12:29.878Z,1026.03
2023-03-01T01:13:30.033Z,1026.02
2023-03-01T01:14:29.893Z,1026.02
2023-03-01T01:15:29.959Z,1026.01
2023-03-01T01:16:30.629Z,1025.97
2023-03-01T01:17:29.828Z,1025.94
2023-03-01T01:18:29.825Z,1025.88
2023-03-01T01:19:29.884Z,1025.88
2023-03-01T01:20:29.801Z,1025.84
2023-03-01T01:21:29.811Z,1025.89
2023-03-01T01:22:29.784Z,1025.86
2023-03-01T01:23:29.802Z,1025.87
2023-03-01T01:24:29.762Z,1025.84
2023-03-01T01:25:29.762Z,1025.87
2023-03-01T01:26:29.932Z,1025.85
2023-03-01T01:27:29.718Z,1025.85
2023-03-01T01:28:29.879Z,1025.85
2023-03-01T01:29:29.690Z,1025.83
2023-03-01T01:30:29.682Z,1025.84
2023-03-01T01:31:29.772Z,1025.81
2023-03-01T01:32:29.774Z,1025.82
2023-03-01T01:33:29.661Z,1025.78
2023-03-01T01:34:29.628Z,1025.69
2023-03-01T01:35:29.672Z,1025.68
2023-03-01T01:36:29.908Z,1025.70
2023-03-01T01:37:29.643Z,1025.63
2023-03-01T01:38:29.658Z,1025.62
2023-03-01T01:39:29.587Z,1025.63
2023-03-01T01:40:29.567Z,1025.64
2023-03-01T01:41:29.586Z,1025.61
2023-03-01T01:42:29.542Z,1025.62
2023-03-01T01:43:29.556Z,1025.72
2023-03-01T01:44:29.579Z,1025.66
2023-03-01T01:45:29.529Z,1025.66
2023-03-01T01:46:30.120Z,1025.64
2023-03-01T01:47:29.546Z,1025.73
2023-03-01T01:48:29.551Z,1025.72
2023-03-01T01:49:29.546Z,1025.75
2023-03-01T01:50:29.475Z,1025.80
2023-03-01T01:51:29.452Z,1025.83
2023-03-01T01:52:29.450Z,1025.83
2023-03-01T01:53:29.426Z,1025.83
2023-03-01T01:54:29.448Z,1025.89
2023-03-01T01:55:29.410Z,1025.85
2023-03-01T01:56:29.723Z,1025.87
2023-03-01T01:57:29.394Z,1025.87
2023-03-01T01:58:29.376Z,1025.87
2023-03-01T01:59:29.379Z,1025.88
2023-03-01T02:00:29.363Z,1025.90
2023-03-01T02:01:29.347Z,1025.93
2023-03-01T02:02:29.412Z,1025.90
2023-03-01T02:03:29.456Z,1025.89
2023-03-01T02:04:29.302Z,1025.90
2023-03-01T02:05:29.318Z,1025.86
2023-03-01T02:06:29.553Z,1025.84
2023-03-01T02:07:29.534Z,1025.82
2023-03-01T02:08:29.258Z,1025.85
2023-03-01T02:09:29.260Z,1025.85
2023-03-01T02:10:29.226Z,1025.82
2023-03-01T02:11:29.237Z,1025.87
2023-03-01T02:12:29.202Z,1025.84
2023-03-01T02:13:29.212Z,1025.85
2023-03-01T02:14:29.185Z,1025.86
2023-03-01T02:15:29.194Z,1025.83
2023-03-01T02:16:29.823Z,1025.81
2023-03-01T02:17:29.407Z,1025.82
2023-03-01T02:18:29.157Z,1025.82
2023-03-01T02:19:29.141Z,1025.82
2023-03-01T02:20:29.114Z,1025.81
2023-03-01T02:21:29.142Z,1025.78
2023-03-01T02:22:29.114Z,1025.83
2023-03-01T02:23:29.107Z,1025.80
2023-03-01T02:24:29.120Z,1025.80
2023-03-01T02:25:29.415Z,1025.76
2023-03-01T02:26:29.409Z,1025.80
2023-03-01T02:27:30.020Z,1025.77
2023-03-01T02:28:29.025Z,1025.77
2023-03-01T02:29:29.036Z,1025.77
2023-03-01T02:30:29.004Z,1025.75
2023-03-01T02:31:29.090Z,1025.74
2023-03-01T02:32:29.007Z,1025.77
2023-03-01T02:33:28.978Z,1025.78
2023-03-01T02:34:28.974Z,1025.78
2023-03-01T02:35:28.982Z,1025.78
2023-03-01T02:36:29.151Z,1025.77
2023-03-01T02:37:29.618Z,1025.83
2023-03-01T02:38:28.944Z,1025.85
2023-03-01T02:39:28.925Z,1025.87
2023-03-01T02:40:28.909Z,1025.90
2023-03-01T02:41:28.900Z,1025.92
2023-03-01T02:42:28.877Z,1025.93
2023-03-01T02:43:28.874Z,1025.91
2023-03-01T02:44:28.905Z,1025.92
2023-03-01T02:45:28.893Z,1025.90
2023-03-01T02:46:29.145Z,1025.86
2023-03-01T02:47:28.813Z,1025.81
2023-03-01T02:48:28.836Z,1025.80
2023-03-01T02:49:28.823Z,1025.80
2023-03-01T02:50:28.800Z,1025.79
2023-03-01T02:51:28.831Z,1025.79
2023-03-01T02:52:28.776Z,1025.76
2023-03-01T02:53:28.799Z,1025.71
2023-03-01T02:54:28.745Z,1025.70
2023-03-01T02:55:29.493Z,1025.66
2023-03-01T02:56:28.932Z,1025.66
2023-03-01T02:57:28.708Z,1025.66
2023-03-01T02:58:28.823Z,1025.70
2023-03-01T02:59:28.741Z,1025.68
2023-03-01T03:00:28.744Z,1025.70
2023-03-01T03:01:28.769Z,1025.66
2023-03-01T03:02:28.647Z,1025.70
2023-03-01T03:03:28.662Z,1025.65
2023-03-01T03:04:28.658Z,1025.65
2023-03-01T03:05:28.618Z,1025.63
2023-03-01T03:06:28.816Z,1025.65
2023-03-01T03:07:28.775Z,1025.63
2023-03-01T03:08:28.622Z,1025.66
2023-03-01T03:09:28.589Z,1025.61
2023-03-01T03:10:28.566Z,1025.57
2023-03-01T03:11:28.594Z,1025.56
2023-03-01T03:12:28.558Z,1025.57
2023-03-01T03:13:28.526Z,1025.55
2023-03-01T03:14:28.625Z,1025.55
2023-03-01T03:15:28.522Z,1025.61
2023-03-01T03:16:29.167Z,1025.62
2023-03-01T03:17:28.663Z,1025.58
2023-03-01T03:18:28.504Z,1025.61
2023-03-01T03:19:28.546Z,1025.60
2023-03-01T03:20:28.454Z,1025.57
2023-03-01T03:21:28.490Z,1025.61
2023-03-01T03:22:28.459Z,1025.62
2023-03-01T03:23:28.484Z,1025.64
2023-03-01T03:24:28.415Z,1025.62
2023-03-01T03:25:28.405Z,1025.58
2023-03-01T03:26:28.560Z,1025.61
2023-03-01T03:27:28.716Z,1025.55
2023-03-01T03:28:28.418Z,1025.52
2023-03-01T03:29:28.356Z,1025.48
2023-03-01T03:30:28.382Z,1025.49
2023-03-01T03:31:28.413Z,1025.49
2023-03-01T03:32:28.362Z,1025.47
2023-03-01T03:33:28.310Z,1025.45
2023-03-01T03:34:28.297Z,1025.42
2023-03-01T03:35:28.319Z,1025.47
2023-03-01T03:36:28.425Z,1025.45
2023-03-01T03:37:28.275Z,1025.45
2023-03-01T03:38:28.274Z,1025.41
2023-03-01T03:39:28.258Z,1025.44
2023-03-01T03:40:28.355Z,1025.42
2023-03-01T03:41:28.226Z,1025.37
2023-03-01T03:42:28.215Z,1025.38
2023-03-01T03:43:28.216Z,1025.33
2023-03-01T03:44:28.190Z,1025.31
2023-03-01T03:45:28.258Z,1025.25
2023-03-01T03:46:28.184Z,1025.22
2023-03-01T03:47:28.161Z,1025.24
2023-03-01T03:48:28.181Z,1025.23
2023-03-01T03:49:28.152Z,1025.21
2023-03-01T03:50:28.129Z,1025.20
2023-03-01T03:51:28.123Z,1025.21
2023-03-01T03:52:28.199Z,1025.19
2023-03-01T03:53:28.173Z,1025.17
2023-03-01T03:54:28.077Z,1025.19
2023-03-01T03:55:28.064Z,1025.19
2023-03-01T03:56:28.906Z,1025.17
2023-03-01T03:57:28.043Z,1025.13
2023-03-01T03:58:28.051Z,1025.18
2023-03-01T03:59:28.157Z,1025.12
2023-03-01T04:00:28.024Z,1025.09
2023-03-01T04:01:28.028Z,1025.10
2023-03-01T04:02:28.025Z,1025.08
2023-03-01T04:03:28.004Z,1025.11
2023-03-01T04:04:27.988Z,1025.10
2023-03-01T04:05:27.956Z,1025.11
2023-03-01T04:06:28.092Z,1025.16
2023-03-01T04:07:27.927Z,1025.16
2023-03-01T04:08:28.157Z,1025.14
2023-03-01T04:09:27.925Z,1025.18
2023-03-01T04:10:27.903Z,1025.21
2023-03-01T04:11:27.930Z,1025.21
2023-03-01T04:12:28.568Z,1025.23
2023-03-01T04:13:27.871Z,1025.21
2023-03-01T04:14:27.864Z,1025.20
2023-03-01T04:15:27.848Z,1025.15
2023-03-01T04:16:28.002Z,1025.16
2023-03-01T04:17:27.963Z,1025.16
2023-03-01T04:18:27.813Z,1025.13
2023-03-01T04:19:27.813Z,1025.19
2023-03-01T04:20:27.816Z,1025.17
2023-03-01T04:21:27.844Z,1025.15
2023-03-01T04:22:27.765Z,1025.14
2023-03-01T04:23:28.431Z,1025.14
2023-03-01T04:24:27.743Z,1025.11
2023-03-01T04:25:27.734Z,1025.15
2023-03-01T04:26:27.764Z,1025.12
2023-03-01T04:27:27.721Z,1025.11
2023-03-01T04:28:27.703Z,1025.07
2023-03-01T04:29:27.681Z,1025.08
2023-03-01T04:30:27.669Z,1025.03
2023-03-01T04:31:27.806Z,1025.03
2023-03-01T04:32:27.755Z,1025.05
2023-03-01T04:33:27.680Z,1025.04
2023-03-01T04:34:27.676Z,1025.06
2023-03-01T04:35:27.697Z,1025.07
2023-03-01T04:36:27.803Z,1025.08
2023-03-01T04:37:27.604Z,1025.08
2023-03-01T04:38:27.603Z,1025.07
2023-03-01T04:39:27.577Z,1025.06
2023-03-01T04:40:27.646Z,1025.04
2023-03-01T04:41:27.570Z,1025.01
2023-03-01T04:42:27.540Z,1025.01
2023-03-01T04:43:28.370Z,1025.04
2023-03-01T04:44:27.520Z,1025.00
2023-03-01T04:45:27.500Z,1025.05
2023-03-01T04:46:27.611Z,1025.07
2023-03-01T04:47:27.537Z,1025.04
2023-03-01T04:48:27.508Z,1025.03
2023-03-01T04:49:27.460Z,1025.07
2023-03-01T04:50:27.463Z,1025.06
2023-03-01T04:51:27.536Z,1025.08
2023-03-01T04:52:27.470Z,1025.08
2023-03-01T04:53:27.411Z,1025.09
2023-03-01T04:54:27.458Z,1025.09
2023-03-01T04:55:27.432Z,1025.06
2023-03-01T04:56:27.392Z,1025.00
2023-03-01T04:57:27.556Z,1025.05
2023-03-01T04:58:27.380Z,1025.10
2023-03-01T04:59:27.356Z,1025.10
2023-03-01T05:00:27.395Z,1025.13
2023-03-01T05:01:27.371Z,1025.16
2023-03-01T05:02:27.431Z,1025.19
2023-03-01T05:03:27.656Z,1025.11
2023-03-01T05:04:27.321Z,1025.10
2023-03-01T05:05:27.315Z,1025.07
2023-03-01T05:06:27.302Z,1025.05
2023-03-01T05:07:27.283Z,1025.05
2023-03-01T05:08:27.260Z,1025.08
2023-03-01T05:09:27.320Z,1025.14
2023-03-01T05:10:27.341Z,1025.15
2023-03-01T05:11:27.228Z,1025.15
2023-03-01T05:12:27.408Z,1025.11
2023-03-01T05:13:27.223Z,1025.14
2023-03-01T05:14:27.208Z,1025.07
2023-03-01T05:15:27.310Z,1025.07
2023-03-01T05:16:27.255Z,1025.13
2023-03-01T05:17:35.173Z,1025.08
2023-03-01T05:18:34.153Z,1025.10
2023-03-01T05:19:27.122Z,1025.16
2023-03-01T05:20:27.138Z,1025.14
2023-03-01T05:21:27.111Z,1025.17
2023-03-01T05:22:27.133Z,1025.14
2023-03-01T05:23:27.084Z,1025.15
2023-03-01T05:24:27.092Z,1025.12
2023-03-01T05:25:34.264Z,1025.09
2023-03-01T05:26:28.462Z,1025.08
2023-03-01T05:27:34.066Z,1025.06
2023-03-01T05:28:34.040Z,1025.03
2023-03-01T05:29:34.019Z,1025.06
2023-03-01T05:30:34.028Z,1025.06
2023-03-01T05:31:27.097Z,1025.06
2023-03-01T05:32:35.005Z,1025.05
2023-03-01T05:33:26.979Z,1024.99
2023-03-01T05:34:26.954Z,1024.95
2023-03-01T05:35:27.018Z,1024.98
2023-03-01T05:36:26.948Z,1024.92
2023-03-01T05:37:26.910Z,1024.95
2023-03-01T05:38:26.940Z,1024.87
2023-03-01T05:39:26.909Z,1024.90
2023-03-01T05:40:26.890Z,1024.90
2023-03-01T05:41:27.181Z,1024.85
2023-03-01T05:42:26.953Z,1024.87
2023-03-01T05:43:26.894Z,1024.88
2023-03-01T05:44:26.906Z,1024.85
2023-03-01T05:45:26.845Z,1024.86
2023-03-01T05:46:26.852Z,1024.88
2023-03-01T05:47:26.833Z,1024.89
2023-03-01T05:48:26.820Z,1024.91
2023-03-01T05:49:26.805Z,1024.92
2023-03-01T05:50:26.832Z,1024.91
2023-03-01T05:51:27.521Z,1024.92
2023-03-01T05:52:26.802Z,1024.94
2023-03-01T05:53:26.753Z,1024.95
2023-03-01T05:54:26.882Z,1024.94
2023-03-01T05:55:28.203Z,1024.98
2023-03-01T05:56:26.744Z,1024.98
2023-03-01T05:57:26.718Z,1025.05
2023-03-01T05:58:26.815Z,1025.08
2023-03-01T05:59:26.699Z,1025.02
2023-03-01T06:00:26.780Z,1025.03
2023-03-01T06:01:26.723Z,1025.01
2023-03-01T06:02:26.652Z,1024.98
2023-03-01T06:03:26.662Z,1024.97
2023-03-01T06:04:26.754Z,1024.98
2023-03-01T06:05:26.704Z,1025.01
2023-03-01T06:06:28.964Z,1024.99
2023-03-01T06:07:26.713Z,1025.00
2023-03-01T06:08:26.599Z,1024.99
2023-03-01T06:09:26.586Z,1025.00
2023-03-01T06:10:26.737Z,1024.94
2023-03-01T06:11:26.566Z,1024.95
2023-03-01T06:12:26.542Z,1024.94
2023-03-01T06:13:26.661Z,1024.93
2023-03-01T06:14:26.600Z,1024.97
2023-03-01T06:15:27.305Z,1024.98
2023-03-01T06:16:26.549Z,1024.98
2023-03-01T06:17:26.506Z,1024.97
2023-03-01T06:18:26.502Z,1025.00
2023-03-01T06:19:26.541Z,1024.98
2023-03-01T06:20:26.727Z,1024.97
2023-03-01T06:21:26.456Z,1024.98
2023-03-01T06:22:26.452Z,1024.97
2023-03-01T06:23:26.412Z,1024.95
2023-03-01T06:24:26.449Z,1024.92
2023-03-01T06:25:26.426Z,1024.95
2023-03-01T06:26:26.418Z,1024.95
2023-03-01T06:27:26.380Z,1024.96
2023-03-01T06:28:26.461Z,1024.96
2023-03-01T06:29:26.367Z,1024.93
2023-03-01T06:30:26.551Z,1024.93
2023-03-01T06:31:26.418Z,1024.91
2023-03-01T06:32:26.379Z,1024.89
2023-03-01T06:33:26.328Z,1024.92
2023-03-01T06:34:26.320Z,1024.93
2023-03-01T06:35:26.372Z,1024.93
2023-03-01T06:36:26.546Z,1024.97
2023-03-01T06:37:26.275Z,1024.96
2023-03-01T06:38:26.337Z,1025.01
2023-03-01T06:39:26.260Z,1025.04
2023-03-01T06:40:26.245Z,1025.04
2023-03-01T06:41:26.244Z,1025.05
2023-03-01T06:42:26.236Z,1025.07
2023-03-01T06:43:26.214Z,1025.07
2023-03-01T06:44:26.216Z,1025.07
2023-03-01T06:45:26.192Z,1025.09
2023-03-01T06:46:26.284Z,1025.05
2023-03-01T06:47:26.311Z,1025.06
2023-03-01T06:48:26.167Z,1025.04
2023-03-01T06:49:26.141Z,1025.06
2023-03-01T06:50:26.237Z,1025.06
2023-03-01T06:51:26.138Z,1025.06
2023-03-01T06:52:26.135Z,1025.06
2023-03-01T06:53:26.126Z,1025.07
2023-03-01T06:54:26.290Z,1025.07
2023-03-01T06:55:26.059Z,1025.02
2023-03-01T06:56:26.058Z,1025.06
2023-03-01T06:57:26.070Z,1025.08
2023-03-01T06:58:26.058Z,1025.11
2023-03-01T06:59:26.083Z,1025.11
2023-03-01T07:00:26.028Z,1025.10
2023-03-01T07:01:26.003Z,1025.10
2023-03-01T07:02:26.056Z,1025.08
2023-03-01T07:03:26.005Z,1025.06
2023-03-01T07:04:25.972Z,1025.07
2023-03-01T07:05:25.943Z,1025.05
2023-03-01T07:06:25.955Z,1025.03
2023-03-01T07:07:25.945Z,1025.08
2023-03-01T07:08:25.958Z,1025.05
2023-03-01T07:09:26.102Z,1025.07
2023-03-01T07:10:25.924Z,1025.09
2023-03-01T07:11:25.978Z,1025.11
2023-03-01T07:12:25.899Z,1025.15
2023-03-01T07:13:25.903Z,1025.14
2023-03-01T07:14:25.842Z,1025.15
2023-03-01T07:15:25.855Z,1025.15
2023-03-01T07:16:25.977Z,1025.17
2023-03-01T07:17:25.858Z,1025.16
2023-03-01T07:18:25.863Z,1025.20
2023-03-01T07:19:25.839Z,1025.23
2023-03-01T07:20:25.784Z,1025.20
2023-03-01T07:21:25.803Z,1025.18
2023-03-01T07:22:25.787Z,1025.23
2023-03-01T07:23:25.791Z,1025.19
2023-03-01T07:24:25.862Z,1025.19
2023-03-01T07:25:25.779Z,1025.23
2023-03-01T07:26:26.346Z,1025.21
2023-03-01T07:27:25.727Z,1025.14
2023-03-01T07:28:25.774Z,1025.19
2023-03-01T07:29:25.714Z,1025.20
2023-03-01T07:30:25.702Z,1025.26
2023-03-01T07:31:25.726Z,1025.24
2023-03-01T07:32:25.684Z,1025.20
2023-03-01T07:33:25.722Z,1025.23
2023-03-01T07:34:25.632Z,1025.28
2023-03-01T07:35:26.169Z,1025.24
2023-03-01T07:36:25.618Z,1025.25
2023-03-01T07:37:25.738Z,1025.27
2023-03-01T07:38:25.649Z,1025.29
2023-03-01T07:39:25.652Z,1025.28
2023-03-01T07:40:25.574Z,1025.28
2023-03-01T07:41:25.578Z,1025.29
2023-03-01T07:42:25.541Z,1025.25
2023-03-01T07:43:25.522Z,1025.17
2023-03-01T07:44:25.536Z,1025.19
2023-03-01T07:45:25.608Z,1025.18
2023-03-01T07:46:25.494Z,1025.17
2023-03-01T07:47:25.522Z,1025.14
2023-03-01T07:48:25.473Z,1025.20
2023-03-01T07:49:25.466Z,1025.16
2023-03-01T07:50:25.482Z,1025.16
2023-03-01T07:51:25.441Z,1025.15
2023-03-01T07:52:25.430Z,1025.15
2023-03-01T07:53:25.428Z,1025.11
2023-03-01T07:54:25.404Z,1025.11
2023-03-01T07:55:25.411Z,1025.11
2023-03-01T07:56:25.370Z,1025.12
2023-03-01T07:57:25.519Z,1025.14
2023-03-01T07:58:25.517Z,1025.15
2023-03-01T07:59:25.393Z,1025.14
2023-03-01T08:00:25.358Z,1025.14
2023-03-01T08:01:25.463Z,1025.16
2023-03-01T08:02:25.369Z,1025.13
2023-03-01T08:03:25.347Z,1025.15
2023-03-01T08:04:25.407Z,1025.14
2023-03-01T08:05:25.312Z,1025.10
2023-03-01T08:06:25.377Z,1025.09
2023-03-01T08:07:25.291Z,1025.08
2023-03-01T08:08:25.240Z,1025.10
2023-03-01T08:09:25.545Z,1025.09
2023-03-01T08:10:25.216Z,1025.08
2023-03-01T08:11:25.469Z,1025.08
2023-03-01T08:12:25.524Z,1025.09
2023-03-01T08:13:25.232Z,1025.08
2023-03-01T08:14:25.191Z,1025.08
2023-03-01T08:15:25.199Z,1025.08
2023-03-01T08:16:25.268Z,1025.07
2023-03-01T08:17:25.141Z,1025.10
2023-03-01T08:18:25.145Z,1025.09
2023-03-01T08:19:25.164Z,1025.08
2023-03-01T08:20:25.269Z,1025.08
2023-03-01T08:21:25.181Z,1025.06
2023-03-01T08:22:25.184Z,1025.11
2023-03-01T08:23:25.127Z,1025.07
2023-03-01T08:24:25.878Z,1025.06
2023-03-01T08:25:25.091Z,1025.04
2023-03-01T08:26:25.060Z,1025.03
2023-03-01T08:27:25.618Z,1025.03
2023-03-01T08:28:25.030Z,1025.01
2023-03-01T08:29:25.015Z,1025.00
2023-03-01T08:30:25.104Z,1024.99
2023-03-01T08:31:25.039Z,1024.98
2023-03-01T08:32:25.042Z,1024.95
2023-03-01T08:33:25.137Z,1024.91
2023-03-01T08:34:24.958Z,1024.92
2023-03-01T08:35:24.969Z,1024.93
2023-03-01T08:36:24.968Z,1024.91
2023-03-01T08:37:24.984Z,1024.92
2023-03-01T08:38:24.919Z,1024.94
2023-03-01T08:39:25.052Z,1024.89
2023-03-01T08:40:25.041Z,1024.90
2023-03-01T08:41:24.916Z,1024.90
2023-03-01T08:42:24.876Z,1024.90
2023-03-01T08:43:25.527Z,1024.87
2023-03-01T08:44:24.833Z,1024.86
2023-03-01T08:45:24.834Z,1024.92
2023-03-01T08:46:24.838Z,1024.94
2023-03-01T08:47:25.422Z,1024.93
2023-03-01T08:48:24.805Z,1024.92
2023-03-01T08:49:25.021Z,1024.91
2023-03-01T08:50:24.827Z,1024.92
2023-03-01T08:51:25.578Z,1024.88
2023-03-01T08:52:24.771Z,1024.92
2023-03-01T08:53:25.504Z,1024.89
2023-03-01T08:54:24.733Z,1024.86
2023-03-01T08:55:24.724Z,1024.85
2023-03-01T08:56:24.717Z,1024.82
2023-03-01T08:57:24.724Z,1024.82
2023-03-01T08:58:24.711Z,1024.81
2023-03-01T08:59:24.700Z,1024.79
2023-03-01T09:00:24.676Z,1024.78
2023-03-01T09:01:24.664Z,1024.74
2023-03-01T09:02:24.700Z,1024.78
2023-03-01T09:03:24.663Z,1024.79
2023-03-01T09:04:24.644Z,1024.76
2023-03-01T09:05:24.646Z,1024.75
2023-03-01T09:06:24.636Z,1024.74
2023-03-01T09:07:24.608Z,1024.76
2023-03-01T09:08:24.701Z,1024.75
2023-03-01T09:09:24.689Z,1024.74
2023-03-01T09:10:24.785Z,1024.71
2023-03-01T09:11:24.557Z,1024.72
2023-03-01T09:12:24.538Z,1024.69
2023-03-01T09:13:24.540Z,1024.70
2023-03-01T09:14:24.531Z,1024.69
2023-03-01T09:15:24.524Z,1024.66
2023-03-01T09:16:24.557Z,1024.66
2023-03-01T09:17:24.549Z,1024.67
2023-03-01T09:18:24.464Z,1024.68
2023-03-01T09:19:26.397Z,1024.68
2023-03-01T09:20:24.458Z,1024.65
2023-03-01T09:21:39.020Z,1024.66
2023-03-01T09:22:25.449Z,1024.68
2023-03-01T09:23:24.488Z,1024.67
2023-03-01T09:24:24.423Z,1024.70
2023-03-01T09:25:24.397Z,1024.75
2023-03-01T09:26:24.374Z,1024.73
2023-03-01T09:27:24.399Z,1024.72
2023-03-01T09:28:29.825Z,1024.67
2023-03-01T09:29:25.358Z,1024.73
2023-03-01T09:30:24.326Z,1024.74
2023-03-01T09:31:24.325Z,1024.71
2023-03-01T09:32:24.413Z,1024.70
2023-03-01T09:33:24.432Z,1024.69
2023-03-01T09:34:24.436Z,1024.72
2023-03-01T09:35:24.295Z,1024.70
2023-03-01T09:36:24.273Z,1024.66
2023-03-01T09:37:24.338Z,1024.66
2023-03-01T09:38:25.935Z,1024.64
2023-03-01T09:39:24.250Z,1024.63
2023-03-01T09:40:24.246Z,1024.67
2023-03-01T09:41:24.213Z,1024.64
2023-03-01T09:42:24.923Z,1024.60
2023-03-01T09:43:24.240Z,1024.58
2023-03-01T09:44:24.195Z,1024.57
2023-03-01T09:45:24.267Z,1024.63
2023-03-01T09:46:24.235Z,1024.65
2023-03-01T09:47:24.211Z,1024.66
2023-03-01T09:48:24.133Z,1024.58
2023-03-01T09:49:24.149Z,1024.62
2023-03-01T09:50:24.185Z,1024.59
2023-03-01T09:51:24.115Z,1024.52
2023-03-01T09:52:24.127Z,1024.55
2023-03-01T09:53:24.097Z,1024.53
2023-03-01T09:54:24.758Z,1024.55
2023-03-01T09:55:24.067Z,1024.60
2023-03-01T09:56:24.055Z,1024.56
2023-03-01T09:57:24.069Z,1024.60
2023-03-01T09:58:24.688Z,1024.59
2023-03-01T09:59:24.050Z,1024.58
2023-03-01T10:00:24.248Z,1024.56
2023-03-01T10:01:24.027Z,1024.57
2023-03-01T10:02:24.063Z,1024.57
2023-03-01T10:03:24.178Z,1024.56
2023-03-01T10:04:23.999Z,1024.52
2023-03-01T10:05:24.087Z,1024.55
2023-03-01T10:06:34.478Z,1024.54
2023-03-01T10:07:24.958Z,1024.56
2023-03-01T10:08:23.947Z,1024.56
2023-03-01T10:09:23.956Z,1024.55
2023-03-01T10:10:23.907Z,1024.58
2023-03-01T10:11:25.233Z,1024.58
2023-03-01T10:12:23.883Z,1024.63
2023-03-01T10:13:23.903Z,1024.59
2023-03-01T10:14:24.541Z,1024.61
2023-03-01T10:15:23.856Z,1024.61
2023-03-01T10:16:23.825Z,1024.62
2023-03-01T10:17:23.830Z,1024.61
2023-03-01T10:18:23.900Z,1024.63
2023-03-01T10:19:23.828Z,1024.65
2023-03-01T10:20:23.818Z,1024.65
2023-03-01T10:21:23.775Z,1024.63
2023-03-01T10:22:23.777Z,1024.63
2023-03-01T10:23:23.792Z,1024.65
2023-03-01T10:24:23.823Z,1024.63
2023-03-01T10:25:23.763Z,1024.58
2023-03-01T10:26:23.737Z,1024.59
2023-03-01T10:27:23.835Z,1024.62
2023-03-01T10:28:23.689Z,1024.58
2023-03-01T10:29:23.704Z,1024.61
2023-03-01T10:30:23.735Z,1024.63
2023-03-01T10:31:24.485Z,1024.56
2023-03-01T10:32:25.151Z,1024.56
2023-03-01T10:33:23.764Z,1024.55
2023-03-01T10:34:23.623Z,1024.56
2023-03-01T10:35:23.632Z,1024.56
2023-03-01T10:36:23.737Z,1024.51
2023-03-01T10:37:23.613Z,1024.50
2023-03-01T10:38:23.624Z,1024.54
2023-03-01T10:39:23.638Z,1024.50
2023-03-01T10:40:23.626Z,1024.49
2023-03-01T10:41:23.574Z,1024.51
2023-03-01T10:42:23.558Z,1024.47
2023-03-01T10:43:23.550Z,1024.44
2023-03-01T10:44:23.585Z,1024.43
2023-03-01T10:45:25.218Z,1024.45
2023-03-01T10:46:23.568Z,1024.34
2023-03-01T10:47:23.534Z,1024.35
2023-03-01T10:48:23.589Z,1024.36
2023-03-01T10:49:23.490Z,1024.40
2023-03-01T10:50:23.478Z,1024.38
2023-03-01T10:51:23.660Z,1024.36
2023-03-01T10:52:23.469Z,1024.34
2023-03-01T10:53:23.477Z,1024.31
2023-03-01T10:54:23.425Z,1024.35
2023-03-01T10:55:24.356Z,1024.32
2023-03-01T10:56:23.412Z,1024.30
2023-03-01T10:57:23.407Z,1024.28
2023-03-01T10:58:23.383Z,1024.24
2023-03-01T10:59:23.386Z,1024.27
2023-03-01T11:00:23.364Z,1024.30
2023-03-01T11:01:23.389Z,1024.22
2023-03-01T11:02:25.380Z,1024.21
2023-03-01T11:03:23.329Z,1024.20
2023-03-01T11:04:23.359Z,1024.23
2023-03-01T11:05:23.338Z,1024.19
2023-03-01T11:06:23.352Z,1024.19
2023-03-01T11:07:23.328Z,1024.14
2023-03-01T11:08:23.264Z,1024.14
2023-03-01T11:09:23.257Z,1024.11
2023-03-01T11:10:23.234Z,1024.08
2023-03-01T11:11:23.255Z,1024.07
2023-03-01T11:12:23.255Z,1024.09
2023-03-01T11:13:23.272Z,1024.09
2023-03-01T11:14:27.222Z,1024.05
2023-03-01T11:15:23.185Z,1024.06
2023-03-01T11:16:23.230Z,1024.04
2023-03-01T11:17:23.172Z,1024.01
2023-03-01T11:18:30.971Z,1024.08
2023-03-01T11:19:24.255Z,1024.04
2023-03-01T11:20:24.710Z,1024.04
2023-03-01T11:21:23.216Z,1024.04
2023-03-01T11:22:23.203Z,1023.99
2023-03-01T11:23:23.117Z,1023.96
2023-03-01T11:24:23.107Z,1023.97
2023-03-01T11:25:23.115Z,1023.96
2023-03-01T11:26:23.060Z,1023.99
2023-03-01T11:27:23.053Z,1024.00
2023-03-01T11:28:23.055Z,1023.99
2023-03-01T11:29:23.056Z,1023.96
2023-03-01T11:30:23.048Z,1023.91
2023-03-01T11:31:23.075Z,1023.85
2023-03-01T11:32:23.250Z,1023.86
2023-03-01T11:33:22.977Z,1023.84
2023-03-01T11:34:22.971Z,1023.83
2023-03-01T11:35:22.968Z,1023.83
2023-03-01T11:36:23.022Z,1023.83
2023-03-01T11:37:22.994Z,1023.83
2023-03-01T11:38:22.949Z,1023.81
2023-03-01T11:39:22.948Z,1023.76
2023-03-01T11:40:22.928Z,1023.80
2023-03-01T11:41:23.001Z,1023.77
2023-03-01T11:42:22.971Z,1023.77
2023-03-01T11:43:23.654Z,1023.75
2023-03-01T11:44:23.747Z,1023.75
2023-03-01T11:45:22.857Z,1023.79
2023-03-01T11:46:22.876Z,1023.74
2023-03-01T11:47:23.034Z,1023.78
2023-03-01T11:48:22.820Z,1023.77
2023-03-01T11:49:22.970Z,1023.77
2023-03-01T11:50:22.806Z,1023.82
2023-03-01T11:51:22.852Z,1023.83
2023-03-01T11:52:22.773Z,1023.84
2023-03-01T11:53:22.765Z,1023.82
2023-03-01T11:54:22.764Z,1023.85
2023-03-01T11:55:22.821Z,1023.88
2023-03-01T11:56:23.947Z,1023.88
2023-03-01T11:57:28.867Z,1023.86
2023-03-01T11:58:23.719Z,1023.88
2023-03-01T11:59:22.694Z,1023.87
2023-03-01T12:00:22.707Z,1023.81
2023-03-01T12:01:22.689Z,1023.84
2023-03-01T12:02:22.744Z,1023.85
2023-03-01T12:03:22.648Z,1023.82
2023-03-01T12:04:22.717Z,1023.81
2023-03-01T12:05:22.635Z,1023.76